Adaton, Mississippi
Current Conditions -  °F | °C
As of 7:35 PM on Monday 22 Dec 2014 (Local Time) from KSTF Reporting Station
Moderate Fog Moderate Fog  
Wind Chill: 55°   Ceiling: 100
Heat Index: 55°   Visibility: 0.5mi
Dew Point: 54°   Wind: 8mph
Humidity: 94%   Direction: 140°SE
Pressure: 29.71"   Gusts: NA
Location:  33.4256°N, 88.8438°W
Report Text: KSTF 230135Z AUTO 14007KT 1/2SM FG OVC001 13/12 A2971 RMK AO2
Loading
Personal Weather Stations






























Interactive Weather Map New forecast layout! Learn more

10-Day Weather Forecast

Advertisements
Track Severe Weather on mobile